Time;durP1;ratioP1;P1;durP2;ratioP2;P2;SDS_P1;SDS_P2;PMS_P1;PMS_P2;Temp;Humidity;BMP_temperature;BMP_pressure;BME280_temperature;BME280_humidity;BME280_pressure;Samples;Min_cycle;Max_cycle;Signal;HPM_P1;HPM_P2
2022/08/07 00:01:54;;;;;;;1.88;1.77;;;16.00;99.90;;;;;;5014052;28;20169;-73
2022/08/07 00:04:20;;;;;;;2.05;1.95;;;15.90;99.90;;;;;;5027969;28;20684;-74
2022/08/07 00:06:45;;;;;;;2.08;1.95;;;15.90;99.90;;;;;;5013671;28;20236;-72
2022/08/07 00:09:11;;;;;;;4.55;2.17;;;15.90;99.90;;;;;;5013145;28;20178;-72
2022/08/07 00:11:37;;;;;;;2.65;2.20;;;15.90;99.90;;;;;;5013474;28;20176;-72
2022/08/07 00:14:02;;;;;;;2.47;2.38;;;15.90;99.90;;;;;;5013753;28;20192;-73
2022/08/07 00:16:28;;;;;;;2.15;2.05;;;15.80;99.90;;;;;;5013584;28;20201;-72
2022/08/07 00:18:54;;;;;;;2.20;2.10;;;15.80;99.90;;;;;;5013480;28;20625;-72
2022/08/07 00:21:20;;;;;;;2.17;2.08;;;15.80;99.90;;;;;;5013443;28;20178;-72
2022/08/07 00:23:46;;;;;;;2.15;2.00;;;15.80;99.90;;;;;;5013576;28;20165;-72
2022/08/07 00:26:11;;;;;;;6.40;2.10;;;15.70;99.90;;;;;;5013033;28;20189;-72
2022/08/07 00:28:37;;;;;;;2.45;2.33;;;15.60;99.90;;;;;;5013174;28;20244;-73
2022/08/07 00:31:12;;;;;;;2.33;2.15;;;15.60;99.90;;;;;;5013226;28;20185;-72
2022/08/07 00:33:39;;;;;;;2.28;2.17;;;15.50;99.90;;;;;;5013551;28;20640;-72
2022/08/07 00:36:06;;;;;;;2.35;2.15;;;15.50;99.90;;;;;;5013255;28;20573;-72
2022/08/07 00:38:34;;;;;;;2.20;2.10;;;15.50;99.90;;;;;;5013158;28;20595;-72
2022/08/07 00:41:00;;;;;;;2.13;2.03;;;15.40;99.90;;;;;;5013293;28;20588;-72
2022/08/07 00:43:26;;;;;;;2.50;2.30;;;15.40;99.90;;;;;;5012915;28;20212;-73
2022/08/07 00:45:52;;;;;;;2.42;2.30;;;15.40;99.90;;;;;;5013059;28;20225;-73
2022/08/07 00:48:18;;;;;;;2.15;2.05;;;15.40;99.90;;;;;;5013428;28;20204;-73
2022/08/07 00:50:43;;;;;;;2.33;1.98;;;15.40;99.90;;;;;;5012911;28;20189;-74
2022/08/07 00:53:09;;;;;;;2.20;2.10;;;15.40;99.90;;;;;;5013237;28;20687;-72
2022/08/07 00:55:35;;;;;;;2.78;2.58;;;15.30;99.90;;;;;;5012809;28;20675;-73
2022/08/07 00:58:02;;;;;;;2.15;2.00;;;15.20;99.90;;;;;;5013177;28;20710;-73
2022/08/07 01:00:27;;;;;;;2.03;2.00;;;15.20;99.90;;;;;;5012660;28;20200;-73
2022/08/07 01:02:53;;;;;;;2.05;1.95;;;15.10;99.90;;;;;;5012650;28;20185;-73
2022/08/07 01:05:20;;;;;;;3.20;2.90;;;15.10;99.90;;;;;;5012868;28;20649;-73
2022/08/07 01:07:46;;;;;;;2.78;2.58;;;15.10;99.90;;;;;;5012875;28;20596;-74
2022/08/07 01:10:12;;;;;;;2.15;1.88;;;15.00;99.90;;;;;;5048514;28;20184;-74
2022/08/07 01:12:41;;;;;;;1.90;1.80;;;15.00;99.90;;;;;;5038488;28;20212;-73
2022/08/07 01:15:08;;;;;;;2.72;2.10;;;14.90;99.90;;;;;;5032617;28;20573;-73
2022/08/07 01:17:34;;;;;;;2.20;2.03;;;14.90;99.90;;;;;;5031379;28;20212;-72
2022/08/07 01:20:09;;;;;;;2.00;1.90;;;14.90;99.90;;;;;;5031913;28;20187;-72
2022/08/07 01:22:37;;;;;;;2.50;2.30;;;14.90;99.90;;;;;;5012137;28;20200;-72
2022/08/07 01:25:04;;;;;;;2.08;1.98;;;14.80;99.90;;;;;;5012551;28;20567;-73
2022/08/07 01:27:29;;;;;;;2.20;2.10;;;14.70;99.90;;;;;;5012629;28;20177;-73
2022/08/07 01:29:55;;;;;;;2.72;2.10;;;14.60;99.90;;;;;;5012116;28;20200;-73
2022/08/07 01:32:21;;;;;;;2.10;2.00;;;14.60;99.90;;;;;;5012527;28;20239;-74
2022/08/07 01:34:48;;;;;;;2.10;2.00;;;14.60;99.90;;;;;;5012555;28;20201;-73
2022/08/07 01:37:16;;;;;;;1.83;1.73;;;14.60;99.90;;;;;;5012204;28;20588;-73
2022/08/07 01:39:43;;;;;;;2.40;2.20;;;14.50;99.90;;;;;;5011882;28;20192;-73
2022/08/07 01:42:09;;;;;;;3.17;2.28;;;14.50;99.90;;;;;;5012411;28;20177;-73
2022/08/07 01:44:35;;;;;;;1.95;1.85;;;14.50;99.90;;;;;;5012358;28;20261;-73
2022/08/07 01:47:01;;;;;;;1.90;1.80;;;14.50;99.90;;;;;;5012147;28;20643;-73
2022/08/07 01:49:26;;;;;;;3.45;2.40;;;14.50;99.90;;;;;;5031014;28;20195;-73
2022/08/07 01:51:53;;;;;;;2.10;2.00;;;14.50;99.90;;;;;;5031655;28;20181;-72
2022/08/07 01:54:22;;;;;;;1.90;1.80;;;14.50;99.90;;;;;;5031924;28;20203;-72
2022/08/07 01:57:16;;;;;;;2.25;1.92;;;14.50;99.90;;;;;;5031988;28;20614;-72
2022/08/07 01:59:49;;;;;;;2.08;1.98;;;14.40;99.90;;;;;;5011293;28;20695;-72
2022/08/07 02:02:22;;;;;;;1.92;1.83;;;14.40;99.90;;;;;;5015564;28;20212;-72
2022/08/07 02:05:01;;;;;;;2.10;2.00;;;14.40;99.90;;;;;;5031756;28;20200;-72
2022/08/07 02:07:34;;;;;;;1.90;1.80;;;14.30;99.90;;;;;;5025949;28;20230;-73
2022/08/07 02:10:03;;;;;;;2.35;2.15;;;14.30;99.90;;;;;;5031584;28;20173;-73
2022/08/07 02:12:32;;;;;;;2.00;1.90;;;14.30;99.90;;;;;;5031546;28;20199;-73
2022/08/07 02:15:00;;;;;;;2.28;2.17;;;14.20;99.90;;;;;;5030094;28;20212;-73
2022/08/07 02:17:26;;;;;;;1.83;1.65;;;14.20;99.90;;;;;;5031193;28;20566;-73
2022/08/07 02:19:55;;;;;;;1.80;1.75;;;14.10;99.90;;;;;;5031494;28;20176;-73
2022/08/07 02:22:23;;;;;;;2.65;2.05;;;14.10;99.90;;;;;;5032092;28;20176;-73
2022/08/07 02:24:51;;;;;;;1.85;1.75;;;14.10;99.90;;;;;;5023840;28;20197;-72
2022/08/07 02:27:21;;;;;;;2.08;1.98;;;14.10;99.90;;;;;;5031092;28;20180;-73
2022/08/07 02:29:49;;;;;;;2.40;2.00;;;14.10;99.90;;;;;;5031381;28;20173;-73
2022/08/07 02:32:17;;;;;;;1.98;1.88;;;14.00;99.90;;;;;;5020704;28;20243;-72
2022/08/07 02:34:44;;;;;;;2.17;2.05;;;14.10;99.90;;;;;;5021499;28;20250;-72
2022/08/07 02:37:11;;;;;;;1.42;1.42;;;14.00;99.90;;;;;;5035231;28;20250;-73
2022/08/07 02:39:39;;;;;;;1.77;1.70;;;14.00;99.90;;;;;;5035388;28;20220;-73
2022/08/07 02:42:06;;;;;;;1.77;1.58;;;13.90;99.90;;;;;;5034656;28;20384;-72
2022/08/07 02:44:32;;;;;;;1.67;1.60;;;13.90;99.90;;;;;;5035643;28;20564;-72
2022/08/07 02:47:00;;;;;;;1.60;1.48;;;13.90;99.90;;;;;;5035574;28;20157;-72
2022/08/07 02:49:26;;;;;;;1.70;1.60;;;13.90;99.90;;;;;;5035418;28;20169;-73
2022/08/07 02:51:56;;;;;;;1.95;1.70;;;13.90;99.90;;;;;;5019098;28;20188;-73
2022/08/07 02:54:26;;;;;;;1.85;1.75;;;13.80;99.90;;;;;;5015083;28;20173;-73
2022/08/07 02:56:54;;;;;;;1.98;1.42;;;13.80;99.90;;;;;;5032292;28;20257;-73
2022/08/07 02:59:24;;;;;;;1.92;1.80;;;13.80;99.90;;;;;;5020565;28;20173;-73
2022/08/07 03:01:51;;;;;;;1.70;1.60;;;13.80;99.90;;;;;;5015864;28;20166;-74
2022/08/07 03:04:19;;;;;;;1.85;1.75;;;13.80;99.90;;;;;;5014974;28;20189;-73
2022/08/07 03:06:47;;;;;;;1.90;1.80;;;13.70;99.90;;;;;;5032098;28;20223;-72
2022/08/07 03:09:13;;;;;;;1.52;1.42;;;13.70;99.90;;;;;;5034807;28;20181;-72
2022/08/07 03:11:39;;;;;;;3.17;1.80;;;13.70;99.90;;;;;;5035137;28;20251;-72
2022/08/07 03:14:05;;;;;;;1.70;1.60;;;13.70;99.90;;;;;;5035101;28;20199;-73
2022/08/07 03:16:32;;;;;;;1.45;1.45;;;13.60;99.90;;;;;;5025679;28;20201;-73
2022/08/07 03:18:58;;;;;;;2.05;1.55;;;13.60;99.90;;;;;;5034689;28;20259;-73
2022/08/07 03:21:25;;;;;;;1.60;1.60;;;13.50;99.90;;;;;;5035264;28;20183;-73
2022/08/07 03:23:55;;;;;;;1.60;1.60;;;13.50;99.90;;;;;;5034967;28;20165;-73
2022/08/07 03:26:24;;;;;;;1.50;1.50;;;13.50;99.90;;;;;;5014794;28;20224;-72
2022/08/07 03:28:52;;;;;;;1.55;1.55;;;13.50;99.90;;;;;;5014970;28;20251;-73
2022/08/07 03:31:20;;;;;;;1.98;1.80;;;13.50;99.90;;;;;;5014851;28;20174;-73
2022/08/07 03:33:50;;;;;;;1.50;1.40;;;13.50;99.90;;;;;;5015207;28;20176;-73
2022/08/07 03:36:17;;;;;;;3.58;1.58;;;13.40;99.90;;;;;;5015095;28;20255;-72
2022/08/07 03:38:46;;;;;;;1.27;1.27;;;13.40;99.90;;;;;;5021899;28;20191;-72
2022/08/07 03:41:13;;;;;;;2.47;1.50;;;13.40;99.90;;;;;;5017776;28;20208;-72
2022/08/07 03:43:39;;;;;;;1.60;1.50;;;13.40;99.90;;;;;;5014837;28;20193;-72
2022/08/07 03:46:06;;;;;;;1.85;1.70;;;13.30;99.90;;;;;;5014875;28;20193;-73
2022/08/07 03:48:34;;;;;;;1.70;1.60;;;13.30;99.90;;;;;;5014523;28;20260;-72
2022/08/07 03:51:01;;;;;;;1.70;1.60;;;13.40;99.90;;;;;;5014837;28;20254;-74
2022/08/07 03:53:27;;;;;;;6.50;1.77;;;13.40;99.90;;;;;;5014704;28;20669;-71
2022/08/07 03:55:55;;;;;;;2.78;1.70;;;13.40;99.90;;;;;;5014646;28;20205;-72
2022/08/07 03:58:22;;;;;;;1.85;1.75;;;13.30;99.90;;;;;;5014308;28;20263;-72
2022/08/07 04:00:52;;;;;;;1.20;1.20;;;13.30;99.90;;;;;;5033602;28;20181;-72
2022/08/07 04:03:19;;;;;;;1.48;1.48;;;13.30;99.90;;;;;;5034457;28;20160;-72
2022/08/07 04:05:45;;;;;;;1.30;1.30;;;13.30;99.90;;;;;;5029536;28;20559;-72
2022/08/07 04:08:13;;;;;;;1.55;1.45;;;13.40;99.90;;;;;;5014499;28;20260;-73
2022/08/07 04:10:40;;;;;;;1.70;1.60;;;13.40;99.90;;;;;;5014213;28;20544;-72
2022/08/07 04:13:06;;;;;;;2.50;1.70;;;13.40;99.90;;;;;;5014270;28;20535;-72
2022/08/07 04:15:33;;;;;;;1.25;1.20;;;13.40;99.90;;;;;;5013781;28;20209;-72
2022/08/07 04:18:00;;;;;;;1.50;1.40;;;13.50;99.90;;;;;;5018588;28;20294;-73
2022/08/07 04:20:26;;;;;;;1.67;1.58;;;13.50;99.90;;;;;;5029399;28;20219;-72
2022/08/07 04:22:52;;;;;;;1.42;1.17;;;13.50;99.90;;;;;;5028762;28;20176;-72
2022/08/07 04:25:19;;;;;;;1.10;1.10;;;13.60;99.90;;;;;;5029046;28;20275;-72
2022/08/07 04:27:45;;;;;;;1.02;1.00;;;13.70;99.90;;;;;;5028587;28;20299;-72
2022/08/07 04:30:11;;;;;;;1.40;1.30;;;13.70;99.90;;;;;;5027271;28;20180;-73
2022/08/07 04:32:37;;;;;;;2.80;1.55;;;13.80;99.90;;;;;;5026966;28;20188;-72
2022/08/07 04:35:05;;;;;;;1.30;1.20;;;13.70;99.90;;;;;;5033579;28;20679;-73
2022/08/07 04:37:32;;;;;;;1.80;1.40;;;13.80;99.90;;;;;;5033411;28;20224;-73
2022/08/07 04:39:58;;;;;;;1.60;1.50;;;13.90;99.90;;;;;;5026754;28;20259;-72
2022/08/07 04:42:27;;;;;;;1.25;1.25;;;13.90;99.90;;;;;;5013757;28;20210;-73
2022/08/07 04:44:54;;;;;;;1.20;1.20;;;14.00;99.90;;;;;;5013676;28;20181;-73
2022/08/07 04:47:47;;;;;;;1.10;1.10;;;14.10;99.90;;;;;;5013677;28;20181;-72
2022/08/07 04:50:21;;;;;;;1.42;1.40;;;14.10;99.90;;;;;;5012920;28;20185;-72
2022/08/07 04:52:52;;;;;;;1.27;1.00;;;14.30;99.90;;;;;;5013361;28;20226;-72
2022/08/07 04:55:30;;;;;;;0.98;0.95;;;14.30;99.90;;;;;;5013022;28;20248;-72
2022/08/07 04:58:18;;;;;;;2.20;1.48;;;14.40;99.90;;;;;;5013348;28;20208;-72
2022/08/07 05:00:54;;;;;;;1.20;1.20;;;14.50;99.90;;;;;;5013595;28;20180;-73
2022/08/07 05:04:18;;;;;;;1.85;1.20;;;14.60;99.90;;;;;;5027880;28;20267;-72
2022/08/07 05:06:51;;;;;;;1.17;1.08;;;14.60;99.90;;;;;;5021092;28;20208;-72
2022/08/07 05:09:49;;;;;;;1.95;1.10;;;14.80;99.90;;;;;;5032293;28;20177;-73
2022/08/07 05:12:20;;;;;;;1.20;1.20;;;14.80;99.90;;;;;;5033187;28;20204;-72
2022/08/07 05:14:47;;;;;;;4.00;1.27;;;14.90;99.90;;;;;;5026497;28;20215;-72
2022/08/07 05:17:17;;;;;;;1.20;1.00;;;15.00;99.90;;;;;;5012591;28;20201;-71
2022/08/07 05:19:54;;;;;;;2.30;1.10;;;15.10;99.90;;;;;;5012526;28;20162;-72
2022/08/07 05:22:22;;;;;;;1.42;0.98;;;15.20;99.90;;;;;;5011742;28;20636;-72
2022/08/07 05:24:54;;;;;;;1.20;1.20;;;15.20;99.90;;;;;;5010540;28;20699;-72
2022/08/07 05:27:21;;;;;;;1.00;1.00;;;15.30;99.90;;;;;;5011372;28;20510;-72
2022/08/07 05:29:48;;;;;;;1.88;1.20;;;15.40;99.90;;;;;;5012132;28;20640;-72
2022/08/07 05:32:17;;;;;;;1.95;1.52;;;15.50;99.90;;;;;;5011144;28;20199;-72
2022/08/07 05:34:44;;;;;;;1.30;1.20;;;15.50;99.90;;;;;;5012541;28;20189;-72
2022/08/07 05:37:12;;;;;;;1.08;1.08;;;15.60;99.90;;;;;;5012571;28;20229;-72
2022/08/07 05:39:38;;;;;;;1.27;1.17;;;15.70;99.90;;;;;;5012109;28;20165;-72
2022/08/07 05:42:04;;;;;;;3.15;1.30;;;15.70;99.90;;;;;;5012022;28;20172;-72
2022/08/07 05:44:34;;;;;;;1.23;1.20;;;15.80;99.90;;;;;;5012399;28;20178;-72
2022/08/07 05:47:00;;;;;;;2.45;1.10;;;15.80;99.90;;;;;;5012378;28;20213;-72
2022/08/07 05:49:26;;;;;;;1.15;1.05;;;16.00;99.90;;;;;;5011503;28;20192;-72
2022/08/07 05:51:52;;;;;;;2.67;1.27;;;16.10;99.90;;;;;;5012600;28;20528;-72
2022/08/07 05:54:18;;;;;;;1.55;1.15;;;16.10;99.90;;;;;;5012473;28;20170;-73
2022/08/07 05:56:46;;;;;;;2.25;1.20;;;16.20;99.90;;;;;;5011817;28;20205;-71
2022/08/07 05:59:17;;;;;;;1.30;1.20;;;16.30;99.90;;;;;;5012041;28;20252;-72
2022/08/07 06:01:45;;;;;;;0.93;0.93;;;16.30;99.90;;;;;;5012068;28;20165;-72
2022/08/07 06:04:14;;;;;;;1.05;1.02;;;16.40;99.90;;;;;;5023482;28;20184;-72
2022/08/07 06:06:39;;;;;;;1.13;1.05;;;16.50;99.90;;;;;;5019326;28;20213;-72
2022/08/07 06:09:05;;;;;;;1.23;1.13;;;16.70;99.90;;;;;;5014438;28;20184;-73
2022/08/07 06:11:32;;;;;;;1.23;1.23;;;16.80;99.90;;;;;;5016242;28;20173;-73
2022/08/07 06:13:58;;;;;;;0.80;0.80;;;16.90;99.90;;;;;;5021530;28;20307;-75
2022/08/07 06:16:30;;;;;;;1.20;1.10;;;17.00;99.90;;;;;;5036413;28;20698;-79
2022/08/07 06:18:58;;;;;;;1.30;1.20;;;17.00;99.90;;;;;;5037435;28;20172;-77
2022/08/07 06:21:24;;;;;;;0.90;0.90;;;17.10;99.90;;;;;;5038872;28;20260;-78
2022/08/07 06:23:49;;;;;;;0.98;0.98;;;17.30;99.90;;;;;;5028489;28;20180;-79
2022/08/07 06:26:15;;;;;;;1.25;1.02;;;17.50;99.90;;;;;;5016288;28;20715;-76
2022/08/07 06:28:52;;;;;;;1.08;0.98;;;17.70;99.90;;;;;;5015615;28;20253;-76
2022/08/07 06:31:18;;;;;;;1.15;1.10;;;17.90;99.90;;;;;;5016143;28;20542;-76
2022/08/07 06:33:45;;;;;;;1.23;1.13;;;18.00;99.90;;;;;;5016225;28;20239;-76
2022/08/07 06:36:10;;;;;;;1.42;1.40;;;18.20;99.90;;;;;;5015380;28;20690;-76
2022/08/07 06:38:36;;;;;;;2.75;1.88;;;18.30;99.70;;;;;;5015209;28;20209;-75
2022/08/07 06:41:06;;;;;;;1.20;1.20;;;18.40;99.70;;;;;;5015283;28;20181;-76
2022/08/07 06:43:34;;;;;;;1.58;1.27;;;18.40;99.90;;;;;;5016306;28;20181;-77
2022/08/07 06:46:01;;;;;;;1.58;1.25;;;18.50;99.60;;;;;;5017125;28;20199;-79
2022/08/07 06:48:27;;;;;;;0.93;0.93;;;18.60;99.00;;;;;;5022365;28;20170;-80
2022/08/07 06:50:54;;;;;;;2.55;1.42;;;18.60;98.30;;;;;;5037949;28;20199;-80
2022/08/07 06:53:21;;;;;;;3.58;1.30;;;18.60;98.90;;;;;;5041649;28;20169;-79
2022/08/07 06:55:48;;;;;;;2.55;1.38;;;18.70;98.60;;;;;;5042411;28;20196;-79
2022/08/07 06:58:15;;;;;;;1.20;1.15;;;18.80;98.60;;;;;;5037339;28;20197;-80
2022/08/07 07:00:43;;;;;;;1.45;1.00;;;18.80;98.20;;;;;;5021814;28;20177;-80
2022/08/07 07:03:10;;;;;;;1.30;1.20;;;18.90;97.90;;;;;;5022833;28;20184;-80
2022/08/07 07:05:36;;;;;;;1.17;1.15;;;19.00;98.00;;;;;;5022108;28;20185;-81
2022/08/07 07:08:03;;;;;;;1.42;1.30;;;19.10;98.30;;;;;;5022013;28;20220;-81
2022/08/07 07:10:34;;;;;;;3.33;1.80;;;19.20;96.90;;;;;;5019438;28;20205;-81
2022/08/07 07:13:15;;;;;;;4.57;1.63;;;19.30;96.00;;;;;;5020325;28;20189;-79
2022/08/07 07:15:46;;;;;;;1.50;1.00;;;19.50;95.40;;;;;;5020566;28;20189;-80
2022/08/07 07:18:24;;;;;;;1.13;1.13;;;19.60;95.50;;;;;;5020191;28;20207;-80
2022/08/07 07:20:57;;;;;;;1.30;1.20;;;19.80;94.60;;;;;;5018475;28;20181;-80
2022/08/07 07:23:25;;;;;;;0.82;0.80;;;19.90;94.40;;;;;;5020565;28;20660;-80
2022/08/07 07:25:54;;;;;;;1.05;1.05;;;20.00;93.00;;;;;;5019867;28;20698;-80
2022/08/07 07:28:33;;;;;;;1.02;1.02;;;20.10;91.70;;;;;;5030053;28;20191;-81
2022/08/07 07:31:03;;;;;;;2.28;1.42;;;20.30;92.00;;;;;;5023752;28;20212;-81
2022/08/07 07:33:32;;;;;;;1.30;0.90;;;20.30;92.00;;;;;;5036383;28;20212;-80
2022/08/07 07:36:00;;;;;;;1.20;1.10;;;20.40;91.50;;;;;;5028030;28;20213;-81
2022/08/07 07:38:25;;;;;;;1.10;1.05;;;20.40;90.90;;;;;;5017182;28;20207;-79
2022/08/07 07:40:54;;;;;;;1.42;1.00;;;20.40;90.30;;;;;;5016443;28;20166;-80
2022/08/07 07:43:21;;;;;;;1.23;1.13;;;20.60;91.60;;;;;;5018446;28;20178;-81
2022/08/07 07:45:49;;;;;;;0.82;0.82;;;20.70;89.00;;;;;;5018244;28;20257;-81
2022/08/07 07:48:19;;;;;;;1.05;0.95;;;20.90;86.60;;;;;;5018892;28;20204;-81
2022/08/07 07:50:47;;;;;;;1.20;1.20;;;21.00;85.40;;;;;;5020283;28;20179;-81
2022/08/07 07:53:17;;;;;;;1.05;1.05;;;21.10;86.10;;;;;;5028374;28;20189;-81
2022/08/07 07:55:43;;;;;;;1.15;0.93;;;21.10;85.40;;;;;;5036015;28;20250;-81
2022/08/07 07:58:10;;;;;;;0.98;0.98;;;21.20;82.60;;;;;;5029198;28;20209;-81
2022/08/07 08:00:36;;;;;;;1.10;1.10;;;21.30;83.60;;;;;;5028944;28;20177;-81
2022/08/07 08:03:10;;;;;;;1.20;1.10;;;21.50;83.00;;;;;;5049483;28;20184;-81
2022/08/07 08:05:39;;;;;;;0.88;0.88;;;21.60;82.10;;;;;;5016359;28;20189;-81
2022/08/07 08:08:06;;;;;;;1.58;0.90;;;21.80;81.20;;;;;;5016585;28;20204;-82
2022/08/07 08:10:34;;;;;;;1.00;1.00;;;21.90;81.60;;;;;;5017343;28;20177;-81
2022/08/07 08:13:01;;;;;;;0.90;0.90;;;22.00;79.20;;;;;;5016323;28;20216;-81
2022/08/07 08:15:30;;;;;;;1.35;1.30;;;22.10;80.80;;;;;;5016260;28;20193;-81
2022/08/07 08:17:58;;;;;;;1.20;1.10;;;22.20;77.50;;;;;;5014015;28;20213;-82
2022/08/07 08:20:25;;;;;;;1.20;1.10;;;22.30;78.00;;;;;;5019860;28;20663;-81
2022/08/07 08:28:27;;;;;;;0.93;0.93;;;22.40;78.10;;;;;;5029109;28;20235;-81
2022/08/07 08:30:57;;;;;;;1.73;1.10;;;22.40;74.60;;;;;;5013669;28;20200;-81
2022/08/07 08:33:33;;;;;;;1.15;0.90;;;22.50;75.70;;;;;;5016694;28;20188;-81
2022/08/07 08:36:01;;;;;;;1.00;1.00;;;22.50;73.50;;;;;;5035370;28;20675;-81
2022/08/07 08:38:42;;;;;;;2.55;1.70;;;22.60;74.10;;;;;;5034713;28;20204;-81
2022/08/07 08:41:28;;;;;;;1.50;1.40;;;22.70;73.30;;;;;;5033429;28;20215;-81
2022/08/07 08:44:01;;;;;;;1.25;1.00;;;22.80;71.20;;;;;;5028214;28;20207;-80
2022/08/07 08:46:56;;;;;;;1.00;0.80;;;22.90;69.90;;;;;;5034939;28;20254;-81
2022/08/07 08:49:42;;;;;;;1.00;1.00;;;22.90;70.00;;;;;;5033320;28;20181;-81
2022/08/07 08:52:26;;;;;;;1.05;0.95;;;22.90;70.10;;;;;;5015716;28;20564;-81
2022/08/07 08:55:01;;;;;;;0.88;0.80;;;22.90;69.20;;;;;;5015938;28;20311;-81
2022/08/07 08:58:09;;;;;;;0.70;0.70;;;23.00;69.60;;;;;;5014261;28;20200;-80
2022/08/07 09:00:49;;;;;;;1.02;1.02;;;23.20;68.70;;;;;;5012485;28;20177;-79
2022/08/07 09:03:25;;;;;;;0.82;0.82;;;23.30;68.60;;;;;;5012397;28;20180;-77
2022/08/07 09:06:10;;;;;;;1.58;1.13;;;23.50;68.20;;;;;;5013337;28;20191;-78
2022/08/07 09:08:59;;;;;;;1.00;1.00;;;23.60;68.00;;;;;;5032768;28;20172;-78
2022/08/07 09:11:47;;;;;;;6.53;1.73;;;23.60;66.00;;;;;;5034792;28;20180;-80
2022/08/07 09:14:22;;;;;;;0.80;0.80;;;23.50;65.30;;;;;;5033464;28;20284;-74
2022/08/07 09:17:12;;;;;;;0.82;0.77;;;23.40;66.00;;;;;;5018615;28;20236;-74
2022/08/07 09:20:00;;;;;;;1.02;1.02;;;23.30;66.10;;;;;;5012250;28;20183;-75
2022/08/07 09:22:45;;;;;;;1.00;1.00;;;23.40;66.20;;;;;;5012673;28;20244;-74
2022/08/07 09:25:21;;;;;;;2.60;1.05;;;23.70;66.90;;;;;;5012666;28;20255;-72
2022/08/07 09:28:03;;;;;;;0.93;0.93;;;24.20;66.10;;;;;;5012967;28;20503;-72
2022/08/07 09:31:04;;;;;;;0.80;0.65;;;25.70;63.00;;;;;;5012109;28;20223;-72
2022/08/07 09:33:45;;;;;;;1.25;0.80;;;28.60;56.00;;;;;;5011482;28;20312;-72
2022/08/07 09:36:19;;;;;;;0.95;0.88;;;31.50;51.10;;;;;;5012607;28;20193;-72
2022/08/07 09:39:07;;;;;;;0.75;0.70;;;33.80;45.50;;;;;;5011488;28;20184;-70
2022/08/07 09:41:58;;;;;;;0.85;0.70;;;35.20;42.90;;;;;;5016620;28;20187;-69
2022/08/07 09:44:36;;;;;;;0.70;0.70;;;36.40;41.20;;;;;;5012070;28;20207;-70
2022/08/07 09:47:16;;;;;;;0.70;0.70;;;36.90;39.20;;;;;;5012228;28;20597;-71
2022/08/07 09:50:00;;;;;;;1.05;0.60;;;37.00;38.30;;;;;;5011562;28;20176;-70
2022/08/07 09:52:50;;;;;;;1.00;0.65;;;37.90;36.60;;;;;;5011888;28;20596;-71
2022/08/07 09:55:29;;;;;;;1.83;0.90;;;38.70;35.10;;;;;;5011855;28;20192;-71
2022/08/07 09:58:33;;;;;;;0.55;0.55;;;39.40;35.00;;;;;;5028431;28;20200;-71
2022/08/07 10:01:20;;;;;;;0.52;0.52;;;40.30;33.70;;;;;;5031089;28;20187;-71
2022/08/07 10:04:23;;;;;;;1.13;0.47;;;41.00;32.40;;;;;;5030831;28;20619;-70
2022/08/07 10:07:11;;;;;;;1.30;0.80;;;41.10;32.00;;;;;;5026903;28;20183;-71
2022/08/07 10:09:50;;;;;;;0.50;0.50;;;41.50;31.30;;;;;;5022507;28;20198;-72
2022/08/07 10:12:22;;;;;;;0.70;0.70;;;41.30;31.90;;;;;;5041262;28;20235;-71
2022/08/07 10:15:18;;;;;;;0.60;0.60;;;41.40;32.00;;;;;;5021775;28;20219;-72
2022/08/07 10:18:07;;;;;;;0.70;0.70;;;41.60;31.50;;;;;;5029308;28;20329;-71
2022/08/07 10:20:46;;;;;;;0.63;0.63;;;42.10;31.20;;;;;;5011525;28;20319;-72
2022/08/07 10:23:39;;;;;;;0.60;0.60;;;42.00;30.90;;;;;;5011492;28;20173;-72
2022/08/07 10:26:19;;;;;;;1.75;0.75;;;41.60;30.80;;;;;;5011746;28;20188;-71
2022/08/07 10:29:16;;;;;;;0.68;0.68;;;41.60;30.50;;;;;;5015483;28;20184;-71
2022/08/07 10:31:45;;;;;;;0.70;0.70;;;41.30;31.30;;;;;;5013944;28;20184;-71
2022/08/07 10:34:49;;;;;;;0.63;0.63;;;41.30;31.00;;;;;;5016300;28;20189;-70
2022/08/07 10:37:44;;;;;;;0.65;0.50;;;41.40;30.90;;;;;;5011553;28;20223;-71
2022/08/07 10:40:34;;;;;;;0.50;0.50;;;41.20;31.20;;;;;;5011221;28;20177;-71
2022/08/07 10:43:28;;;;;;;0.70;0.63;;;41.50;30.60;;;;;;5011536;28;20183;-70
2022/08/07 10:46:00;;;;;;;0.77;0.65;;;41.90;30.00;;;;;;5011846;28;20632;-70
2022/08/07 10:48:47;;;;;;;0.63;0.63;;;42.00;30.50;;;;;;5026743;28;20211;-73
2022/08/07 10:51:22;;;;;;;0.73;0.73;;;41.30;30.00;;;;;;5011520;28;20252;-71
2022/08/07 10:53:54;;;;;;;0.57;0.57;;;41.10;30.60;;;;;;5010268;28;20246;-71
2022/08/07 10:56:38;;;;;;;0.60;0.60;;;41.70;30.40;;;;;;5015486;28;20200;-71
2022/08/07 10:59:46;;;;;;;0.85;0.63;;;42.10;30.00;;;;;;5014946;28;20192;-71
2022/08/07 11:02:30;;;;;;;0.77;0.57;;;41.60;29.90;;;;;;5014800;28;20242;-72
2022/08/07 11:05:12;;;;;;;0.63;0.63;;;42.00;29.60;;;;;;5014948;28;20701;-72
2022/08/07 11:08:17;;;;;;;2.47;0.68;;;42.30;29.80;;;;;;5023674;28;20184;-71
2022/08/07 11:10:49;;;;;;;0.50;0.50;;;42.60;29.20;;;;;;5034199;28;20191;-72
2022/08/07 11:13:24;;;;;;;0.60;0.60;;;42.90;29.40;;;;;;5024856;28;20580;-71
2022/08/07 11:15:54;;;;;;;0.43;0.43;;;42.70;29.40;;;;;;5015045;28;20640;-71
2022/08/07 11:18:36;;;;;;;0.60;0.60;;;42.40;29.60;;;;;;5014712;28;20212;-72
2022/08/07 11:21:12;;;;;;;0.88;0.40;;;42.50;29.60;;;;;;5027424;28;20180;-73
2022/08/07 11:24:25;;;;;;;0.55;0.40;;;43.20;28.80;;;;;;5020932;28;20646;-72
2022/08/07 11:27:26;;;;;;;0.80;0.73;;;42.90;29.70;;;;;;5029144;28;20307;-72
2022/08/07 11:30:02;;;;;;;0.90;0.90;;;42.30;30.00;;;;;;5025948;28;20203;-71
2022/08/07 11:32:50;;;;;;;1.17;0.65;;;41.90;30.80;;;;;;5026092;28;20329;-70
2022/08/07 11:35:33;;;;;;;0.68;0.52;;;42.30;30.00;;;;;;5026968;28;20238;-71
2022/08/07 11:38:26;;;;;;;2.30;0.60;;;42.20;29.70;;;;;;5031119;28;20538;-70
2022/08/07 11:41:10;;;;;;;0.47;0.47;;;42.20;30.50;;;;;;5018859;28;20534;-70
2022/08/07 11:43:59;;;;;;;0.52;0.52;;;42.20;30.70;;;;;;5014013;28;20662;-71
2022/08/07 11:46:35;;;;;;;0.45;0.45;;;42.80;30.00;;;;;;5016610;28;20246;-72
2022/08/07 11:49:22;;;;;;;0.30;0.30;;;42.60;29.50;;;;;;5029495;28;20573;-72
2022/08/07 11:52:25;;;;;;;0.40;0.38;;;41.40;30.10;;;;;;5029571;28;20186;-70
2022/08/07 11:55:11;;;;;;;1.38;0.63;;;40.80;30.60;;;;;;5033789;28;20191;-71
2022/08/07 11:57:51;;;;;;;0.50;0.50;;;40.70;31.20;;;;;;5023000;28;20196;-72
2022/08/07 12:00:27;;;;;;;1.33;0.73;;;39.70;31.50;;;;;;5033404;28;20250;-72
2022/08/07 12:03:17;;;;;;;0.77;0.60;;;38.70;32.70;;;;;;5033380;28;20168;-71
2022/08/07 12:06:11;;;;;;;0.68;0.68;;;38.60;32.10;;;;;;5029309;28;20575;-71
2022/08/07 12:08:44;;;;;;;0.70;0.70;;;38.60;32.20;;;;;;5033482;28;20168;-72
2022/08/07 12:11:19;;;;;;;0.60;0.60;;;38.40;32.90;;;;;;5034058;28;20655;-71
2022/08/07 12:14:07;;;;;;;1.30;0.50;;;39.00;32.70;;;;;;5028697;28;20198;-72
2022/08/07 12:16:46;;;;;;;1.05;0.60;;;39.80;31.60;;;;;;5023360;28;20196;-72
2022/08/07 12:19:30;;;;;;;0.40;0.40;;;40.80;30.30;;;;;;5032669;28;20180;-71
2022/08/07 12:22:29;;;;;;;0.40;0.40;;;40.90;30.20;;;;;;5033070;28;20259;-71
2022/08/07 12:27:55;;;;;;;0.60;0.60;;;40.20;31.10;;;;;;5033356;28;20171;-71
2022/08/07 12:30:26;;;;;;;0.75;0.75;;;40.40;32.10;;;;;;5033015;28;20175;-72
2022/08/07 12:33:21;;;;;;;0.70;0.70;;;41.10;30.50;;;;;;5021333;28;20180;-72
2022/08/07 12:35:52;;;;;;;1.55;0.50;;;41.60;30.20;;;;;;5021344;28;20216;-73
2022/08/07 12:38:19;;;;;;;0.75;0.75;;;41.60;30.40;;;;;;5026621;28;20664;-73
2022/08/07 12:40:47;;;;;;;0.65;0.60;;;41.10;30.40;;;;;;5029541;28;20238;-72
2022/08/07 12:43:18;;;;;;;1.95;0.70;;;41.40;30.70;;;;;;5020541;28;20191;-72
2022/08/07 12:46:09;;;;;;;1.45;0.40;;;42.20;30.00;;;;;;5022957;28;20203;-75
2022/08/07 12:48:44;;;;;;;0.60;0.60;;;41.80;29.90;;;;;;5026993;28;20180;-71
2022/08/07 12:51:19;;;;;;;0.45;0.45;;;41.20;30.00;;;;;;5023283;28;20630;-72
2022/08/07 12:54:03;;;;;;;1.35;0.60;;;41.30;30.10;;;;;;5032216;28;20178;-73
2022/08/07 12:56:39;;;;;;;0.60;0.60;;;41.30;30.30;;;;;;5032379;28;20237;-72
2022/08/07 12:59:07;;;;;;;0.40;0.40;;;41.90;30.10;;;;;;5030704;28;20179;-70
2022/08/07 13:01:54;;;;;;;0.50;0.50;;;43.20;29.20;;;;;;5024523;28;20182;-72
2022/08/07 13:04:40;;;;;;;0.57;0.57;;;43.90;29.10;;;;;;5021857;28;20179;-70
2022/08/07 13:07:21;;;;;;;0.70;0.70;;;45.40;28.40;;;;;;5027076;28;20226;-74
2022/08/07 13:10:08;;;;;;;1.75;0.60;;;46.80;28.10;;;;;;5018422;28;20187;-71
2022/08/07 13:13:03;;;;;;;0.40;0.40;;;49.10;26.80;;;;;;5023882;28;20193;-71
2022/08/07 13:15:58;;;;;;;0.75;0.65;;;51.60;26.10;;;;;;5031799;28;20206;-71
2022/08/07 13:19:00;;;;;;;1.02;0.40;;;53.00;25.30;;;;;;5011120;28;20570;-71
2022/08/07 13:21:31;;;;;;;0.45;0.45;;;52.20;25.50;;;;;;5012736;28;20645;-71
2022/08/07 13:24:21;;;;;;;1.20;0.47;;;52.70;25.40;;;;;;5012320;28;20174;-73
2022/08/07 13:27:13;;;;;;;0.73;0.73;;;54.40;24.70;;;;;;5012427;28;20481;-71
2022/08/07 13:29:55;;;;;;;0.40;0.40;;;54.20;24.50;;;;;;5012258;28;20168;-72
2022/08/07 13:32:44;;;;;;;0.82;0.45;;;55.30;24.20;;;;;;5012114;28;20224;-71